Portada
METAR-TAF:

METAR-TAF

Aeroports :

Tamanrasset, Algèria

latitud: 22-49N, longitud: 005-28E, altitud: 1377 m

Observació

L'informe es va fer fa 25 minuts, a les 04:00 UTC
Vent 5 kt del Nord-Est
Temperatura 10°C
Humitat 14%
Pressió 1024 hPa
Visibilitat 10 km o més
sense núvols per sota de 1500 mi sense presència de cumulonimbus.

METAR: DAAT 290400Z 04005KT CAVOK 10/M16 Q1024

Hora: 05:25 (04:25 UTC)

Pronòstic

L'informe es va fer fa 5 hores i 25 minuts, a les 23:00 UTC
Pronòstic vàlid del 29 a les 00 UTC al 29 a les 24 UTC
Vent 8 kt del Est/Nord-Est
Visibilitat 10 km o més
sense núvols per sota de 1500 mi sense presència de cumulonimbus.
Evolucionant progressivament
l' 29 a les 12 UTC al 29 a les 15 UTC
Vent 10 kt del Oest
Evolucionant progressivament
l' 29 a les 20 UTC al 29 a les 23 UTC
Vent 8 kt del Est/Nord-Est

TAF: DAAT 282300Z 2900/2924 06008KT CAVOK BECMG 2912/2915 28010KT BECMG 2920/2923 06008KT

Observacions i pronòstics meteorològics de més de 4000 aeroports (METAR i TAF).

Les estacions disponibles són els punts grocs i vermells al mapa.

Posi el ratolí al punt desitjat per veure el nom de l'estació.

Feu clic per veure les observacions i els pronòstics meteorològics.

Per canviar el mapa: feu clic els botons verds amb una creu de color negre per apropar; al botó verd amb un guió per allunyar la imatge; o en les fletxes verdes per a mapes adjacents.


METAR-TAF: